YM Kaohsiung — MCGF6 — position and weather

sailwx.info

Track history (hours):
 
Tides and Currents Weather Stations Pressure Air Temp Water Temp Dewpoint Dewpoint Depression Visibility Wind Speed Wind Dir Waves Ship Positions

YM Kaohsiung

Last reported at 2014-Sep-16 15:33 UTC. Time now 2014-Oct-20 08:16 UTC.
Position N 32°04' W 080°58'.
Warning: this ship's position is 33 days out of date.

Length 260 m; draft 10.6 m.

Type: Cargo ship. MMSI: 235767000.

Date/timePositionNaut miles runAvg speedWind from/ knotsBaromVisibWave heightAir tempDewpointWater temp
2014-Sep-16 15:33N 32°04' W 080°58'7 6.8
2014-Sep-16 14:33N 32°05' W 081°06'0 0.0
2014-Sep-16 13:22N 32°05' W 081°06'0 0.0
2014-Sep-16 12:13N 32°05' W 081°06'0 0.0
2014-Sep-16 11:33N 32°05' W 081°06'0 0.0
2014-Sep-16 10:33N 32°05' W 081°06'0 0.0
2014-Sep-16 09:33N 32°05' W 081°06'0 0.0
2014-Sep-16 08:33N 32°05' W 081°06'0 0.0
2014-Sep-16 07:33N 32°05' W 081°06'3 0.7
2014-Sep-16 03:07N 32°08' W 081°08'0 0.0
2014-Sep-16 00:16N 32°08' W 081°08'0 0.0
2014-Sep-15 23:31N 32°08' W 081°08'0 0.0
2014-Sep-15 13:25N 32°08' W 081°08'0 0.0
2014-Sep-15 12:31N 32°08' W 081°08'0 0.0
2014-Sep-15 11:31N 32°08' W 081°08'0 0.0
2014-Sep-15 09:30N 32°08' W 081°08'4 3.4
2014-Sep-15 08:21N 32°05' W 081°05'5 6.6
2014-Sep-15 07:33N 32°05' W 080°59'  
Track history (hours):
 
Tides and Currents Weather Stations Pressure Air Temp Water Temp Dewpoint Dewpoint Depression Visibility Wind Speed Wind Dir Waves Ship Positions

YM Kaohsiung

Last reported at 2014-Sep-16 15:33 UTC. Time now 2014-Oct-20 08:16 UTC.
Position N 32°04' W 080°58'.
Warning: this ship's position is 33 days out of date.

Length 260 m; draft 10.6 m.

Type: Cargo ship. MMSI: 235767000.

Date/timePositionNaut miles runAvg speedWind from/ knotsBaromVisibWave heightAir tempDewpointWater temp
2014-Sep-16 15:33N 32°04' W 080°58'7 6.8
2014-Sep-16 14:33N 32°05' W 081°06'0 0.0
2014-Sep-16 13:22N 32°05' W 081°06'0 0.0
2014-Sep-16 12:13N 32°05' W 081°06'0 0.0
2014-Sep-16 11:33N 32°05' W 081°06'0 0.0
2014-Sep-16 10:33N 32°05' W 081°06'0 0.0
2014-Sep-16 09:33N 32°05' W 081°06'0 0.0
2014-Sep-16 08:33N 32°05' W 081°06'0 0.0
2014-Sep-16 07:33N 32°05' W 081°06'3 0.7
2014-Sep-16 03:07N 32°08' W 081°08'0 0.0
2014-Sep-16 00:16N 32°08' W 081°08'0 0.0
2014-Sep-15 23:31N 32°08' W 081°08'0 0.0
2014-Sep-15 13:25N 32°08' W 081°08'0 0.0
2014-Sep-15 12:31N 32°08' W 081°08'0 0.0
2014-Sep-15 11:31N 32°08' W 081°08'0 0.0
2014-Sep-15 09:30N 32°08' W 081°08'4 3.4
2014-Sep-15 08:21N 32°05' W 081°05'5 6.6
2014-Sep-15 07:33N 32°05' W 080°59'  

Dump ship's entire track history